sensor_id;sensor_type;location;lat;lon;timestamp;P1;durP1;ratioP1;P2;durP2;ratioP2
1062;SDS011;520;50.932;6.962;2023-05-14T00:01:03;12.50;;;9.50;;
1062;SDS011;520;50.932;6.962;2023-05-14T00:04:21;11.83;;;10.50;;
1062;SDS011;520;50.932;6.962;2023-05-14T00:07:17;11.67;;;9.87;;
1062;SDS011;520;50.932;6.962;2023-05-14T00:10:06;11.10;;;10.00;;
1062;SDS011;520;50.932;6.962;2023-05-14T00:13:13;12.30;;;9.53;;
1062;SDS011;520;50.932;6.962;2023-05-14T00:16:07;13.20;;;9.73;;
1062;SDS011;520;50.932;6.962;2023-05-14T00:18:59;11.33;;;9.40;;
1062;SDS011;520;50.932;6.962;2023-05-14T00:21:47;10.77;;;8.70;;
1062;SDS011;520;50.932;6.962;2023-05-14T00:24:37;13.83;;;9.87;;
1062;SDS011;520;50.932;6.962;2023-05-14T00:27:40;10.10;;;9.00;;
1062;SDS011;520;50.932;6.962;2023-05-14T00:30:36;11.03;;;9.03;;
1062;SDS011;520;50.932;6.962;2023-05-14T00:33:54;10.57;;;8.60;;
1062;SDS011;520;50.932;6.962;2023-05-14T00:36:34;10.40;;;9.00;;
1062;SDS011;520;50.932;6.962;2023-05-14T00:42:40;9.53;;;8.60;;
1062;SDS011;520;50.932;6.962;2023-05-14T00:45:31;8.27;;;7.47;;
1062;SDS011;520;50.932;6.962;2023-05-14T00:48:39;9.33;;;8.37;;
1062;SDS011;520;50.932;6.962;2023-05-14T00:51:16;8.93;;;8.07;;
1062;SDS011;520;50.932;6.962;2023-05-14T00:54:01;8.33;;;7.50;;
1062;SDS011;520;50.932;6.962;2023-05-14T01:00:38;8.53;;;7.73;;
1062;SDS011;520;50.932;6.962;2023-05-14T01:03:29;8.80;;;7.90;;
1062;SDS011;520;50.932;6.962;2023-05-14T01:15:56;8.40;;;7.50;;
1062;SDS011;520;50.932;6.962;2023-05-14T01:18:54;7.70;;;7.07;;
1062;SDS011;520;50.932;6.962;2023-05-14T01:22:07;9.17;;;8.23;;
1062;SDS011;520;50.932;6.962;2023-05-14T01:24:54;9.33;;;8.43;;
1062;SDS011;520;50.932;6.962;2023-05-14T01:31:08;8.37;;;7.57;;
1062;SDS011;520;50.932;6.962;2023-05-14T01:34:11;8.90;;;7.97;;
1062;SDS011;520;50.932;6.962;2023-05-14T01:37:16;9.80;;;8.27;;
1062;SDS011;520;50.932;6.962;2023-05-14T01:40:39;8.60;;;7.70;;
1062;SDS011;520;50.932;6.962;2023-05-14T01:43:29;8.77;;;7.97;;
1062;SDS011;520;50.932;6.962;2023-05-14T01:46:06;8.00;;;7.20;;
1062;SDS011;520;50.932;6.962;2023-05-14T01:49:19;9.03;;;8.13;;
1062;SDS011;520;50.932;6.962;2023-05-14T01:55:22;8.83;;;7.93;;
1062;SDS011;520;50.932;6.962;2023-05-14T01:57:52;9.90;;;8.07;;
1062;SDS011;520;50.932;6.962;2023-05-14T02:01:00;9.03;;;7.73;;
1062;SDS011;520;50.932;6.962;2023-05-14T02:03:55;8.57;;;7.77;;
1062;SDS011;520;50.932;6.962;2023-05-14T02:06:51;9.10;;;8.20;;
1062;SDS011;520;50.932;6.962;2023-05-14T02:13:12;8.60;;;7.80;;
1062;SDS011;520;50.932;6.962;2023-05-14T02:19:07;8.40;;;7.60;;
1062;SDS011;520;50.932;6.962;2023-05-14T02:22:10;8.90;;;8.00;;
1062;SDS011;520;50.932;6.962;2023-05-14T02:28:07;11.70;;;6.60;;
1062;SDS011;520;50.932;6.962;2023-05-14T02:31:02;8.20;;;7.50;;
1062;SDS011;520;50.932;6.962;2023-05-14T02:33:56;8.80;;;7.73;;
1062;SDS011;520;50.932;6.962;2023-05-14T02:36:54;8.27;;;7.47;;
1062;SDS011;520;50.932;6.962;2023-05-14T02:40:04;8.73;;;7.93;;
1062;SDS011;520;50.932;6.962;2023-05-14T02:43:41;7.53;;;6.83;;
1062;SDS011;520;50.932;6.962;2023-05-14T02:49:46;10.50;;;8.20;;
1062;SDS011;520;50.932;6.962;2023-05-14T02:55:45;7.93;;;7.23;;
1062;SDS011;520;50.932;6.962;2023-05-14T02:59:01;10.10;;;7.80;;
1062;SDS011;520;50.932;6.962;2023-05-14T03:02:46;7.63;;;6.83;;
1062;SDS011;520;50.932;6.962;2023-05-14T03:08:57;7.00;;;6.30;;
1062;SDS011;520;50.932;6.962;2023-05-14T03:12:16;7.60;;;6.80;;
1062;SDS011;520;50.932;6.962;2023-05-14T03:15:07;7.10;;;6.37;;
1062;SDS011;520;50.932;6.962;2023-05-14T03:17:51;8.77;;;6.77;;
1062;SDS011;520;50.932;6.962;2023-05-14T03:20:55;8.23;;;6.87;;
1062;SDS011;520;50.932;6.962;2023-05-14T03:23:35;7.83;;;7.10;;
1062;SDS011;520;50.932;6.962;2023-05-14T03:26:42;7.63;;;6.27;;
1062;SDS011;520;50.932;6.962;2023-05-14T03:30:20;8.03;;;7.23;;
1062;SDS011;520;50.932;6.962;2023-05-14T03:33:16;7.17;;;6.47;;
1062;SDS011;520;50.932;6.962;2023-05-14T03:36:19;7.37;;;6.53;;
1062;SDS011;520;50.932;6.962;2023-05-14T03:39:06;7.93;;;7.23;;
1062;SDS011;520;50.932;6.962;2023-05-14T03:41:50;10.50;;;6.57;;
1062;SDS011;520;50.932;6.962;2023-05-14T03:44:38;7.33;;;6.60;;
1062;SDS011;520;50.932;6.962;2023-05-14T03:47:46;7.70;;;7.00;;
1062;SDS011;520;50.932;6.962;2023-05-14T03:50:47;7.57;;;6.87;;
1062;SDS011;520;50.932;6.962;2023-05-14T03:53:46;8.30;;;7.50;;
1062;SDS011;520;50.932;6.962;2023-05-14T03:57:01;8.47;;;7.57;;
1062;SDS011;520;50.932;6.962;2023-05-14T03:59:53;9.57;;;7.40;;
1062;SDS011;520;50.932;6.962;2023-05-14T04:02:47;8.43;;;7.63;;
1062;SDS011;520;50.932;6.962;2023-05-14T04:05:59;7.57;;;6.87;;
1062;SDS011;520;50.932;6.962;2023-05-14T04:09:21;7.87;;;7.17;;
1062;SDS011;520;50.932;6.962;2023-05-14T04:12:08;6.90;;;5.90;;
1062;SDS011;520;50.932;6.962;2023-05-14T04:14:59;7.80;;;7.00;;
1062;SDS011;520;50.932;6.962;2023-05-14T04:18:22;8.37;;;7.57;;
1062;SDS011;520;50.932;6.962;2023-05-14T04:21:36;8.40;;;7.43;;
1062;SDS011;520;50.932;6.962;2023-05-14T04:25:07;8.10;;;6.77;;
1062;SDS011;520;50.932;6.962;2023-05-14T04:28:27;8.33;;;7.53;;
1062;SDS011;520;50.932;6.962;2023-05-14T04:31:42;7.70;;;6.70;;
1062;SDS011;520;50.932;6.962;2023-05-14T04:34:37;8.07;;;7.20;;
1062;SDS011;520;50.932;6.962;2023-05-14T04:37:32;7.80;;;7.00;;
1062;SDS011;520;50.932;6.962;2023-05-14T04:40:38;8.43;;;7.73;;
1062;SDS011;520;50.932;6.962;2023-05-14T04:43:38;8.70;;;7.77;;
1062;SDS011;520;50.932;6.962;2023-05-14T04:46:48;8.30;;;7.50;;
1062;SDS011;520;50.932;6.962;2023-05-14T04:49:45;8.10;;;7.27;;
1062;SDS011;520;50.932;6.962;2023-05-14T04:52:59;8.40;;;7.70;;
1062;SDS011;520;50.932;6.962;2023-05-14T04:59:25;9.00;;;8.10;;
1062;SDS011;520;50.932;6.962;2023-05-14T05:02:52;8.20;;;7.40;;
1062;SDS011;520;50.932;6.962;2023-05-14T05:05:45;8.63;;;7.73;;
1062;SDS011;520;50.932;6.962;2023-05-14T05:15:29;8.40;;;7.57;;
1062;SDS011;520;50.932;6.962;2023-05-14T05:18:33;10.10;;;7.90;;
1062;SDS011;520;50.932;6.962;2023-05-14T05:21:32;10.33;;;8.20;;
1062;SDS011;520;50.932;6.962;2023-05-14T05:24:25;9.57;;;7.83;;
1062;SDS011;520;50.932;6.962;2023-05-14T05:34:09;9.63;;;8.67;;
1062;SDS011;520;50.932;6.962;2023-05-14T05:36:59;11.37;;;7.53;;
1062;SDS011;520;50.932;6.962;2023-05-14T05:39:49;12.40;;;8.20;;
1062;SDS011;520;50.932;6.962;2023-05-14T05:42:41;10.97;;;8.50;;
1062;SDS011;520;50.932;6.962;2023-05-14T05:45:41;10.93;;;8.90;;
1062;SDS011;520;50.932;6.962;2023-05-14T05:48:49;9.47;;;8.50;;
1062;SDS011;520;50.932;6.962;2023-05-14T05:51:42;8.00;;;7.20;;
1062;SDS011;520;50.932;6.962;2023-05-14T05:55:03;12.53;;;8.70;;
1062;SDS011;520;50.932;6.962;2023-05-14T05:58:07;11.47;;;10.37;;
1062;SDS011;520;50.932;6.962;2023-05-14T06:01:27;10.47;;;9.40;;
1062;SDS011;520;50.932;6.962;2023-05-14T06:08:14;11.83;;;10.27;;
1062;SDS011;520;50.932;6.962;2023-05-14T06:11:47;9.83;;;8.83;;
1062;SDS011;520;50.932;6.962;2023-05-14T06:14:33;11.13;;;9.93;;
1062;SDS011;520;50.932;6.962;2023-05-14T06:20:35;11.13;;;9.67;;
1062;SDS011;520;50.932;6.962;2023-05-14T06:24:09;11.20;;;10.00;;
1062;SDS011;520;50.932;6.962;2023-05-14T06:27:02;11.60;;;10.40;;
1062;SDS011;520;50.932;6.962;2023-05-14T06:30:25;10.53;;;9.40;;
1062;SDS011;520;50.932;6.962;2023-05-14T06:33:18;9.60;;;8.60;;
1062;SDS011;520;50.932;6.962;2023-05-14T06:36:27;11.33;;;10.13;;
1062;SDS011;520;50.932;6.962;2023-05-14T06:39:42;12.00;;;9.10;;
1062;SDS011;520;50.932;6.962;2023-05-14T06:42:48;12.00;;;9.53;;
1062;SDS011;520;50.932;6.962;2023-05-14T06:45:37;11.27;;;10.17;;
1062;SDS011;520;50.932;6.962;2023-05-14T06:48:38;13.73;;;9.97;;
1062;SDS011;520;50.932;6.962;2023-05-14T06:51:40;10.70;;;9.60;;
1062;SDS011;520;50.932;6.962;2023-05-14T06:54:26;11.80;;;10.60;;
1062;SDS011;520;50.932;6.962;2023-05-14T06:57:02;11.03;;;9.93;;
1062;SDS011;520;50.932;6.962;2023-05-14T07:03:21;15.00;;;11.50;;
1062;SDS011;520;50.932;6.962;2023-05-14T07:06:39;12.97;;;11.47;;
1062;SDS011;520;50.932;6.962;2023-05-14T07:09:20;13.70;;;12.23;;
1062;SDS011;520;50.932;6.962;2023-05-14T07:12:17;13.87;;;11.93;;
1062;SDS011;520;50.932;6.962;2023-05-14T07:15:22;12.40;;;11.10;;
1062;SDS011;520;50.932;6.962;2023-05-14T07:18:14;11.63;;;10.43;;
1062;SDS011;520;50.932;6.962;2023-05-14T07:21:07;11.33;;;9.40;;
1062;SDS011;520;50.932;6.962;2023-05-14T07:23:37;9.47;;;8.57;;
1062;SDS011;520;50.932;6.962;2023-05-14T07:26:19;9.23;;;8.27;;
1062;SDS011;520;50.932;6.962;2023-05-14T07:29:24;8.00;;;7.27;;
1062;SDS011;520;50.932;6.962;2023-05-14T07:32:27;7.70;;;7.00;;
1062;SDS011;520;50.932;6.962;2023-05-14T07:35:26;9.20;;;7.20;;
1062;SDS011;520;50.932;6.962;2023-05-14T07:38:21;8.30;;;7.43;;
1062;SDS011;520;50.932;6.962;2023-05-14T07:41:30;10.67;;;6.33;;
1062;SDS011;520;50.932;6.962;2023-05-14T07:44:55;8.10;;;7.50;;
1062;SDS011;520;50.932;6.962;2023-05-14T07:48:02;7.67;;;6.97;;
1062;SDS011;520;50.932;6.962;2023-05-14T07:50:52;8.50;;;7.20;;
1062;SDS011;520;50.932;6.962;2023-05-14T07:53:39;7.73;;;6.93;;
1062;SDS011;520;50.932;6.962;2023-05-14T07:56:57;9.30;;;6.87;;
1062;SDS011;520;50.932;6.962;2023-05-14T08:00:30;6.43;;;5.83;;
1062;SDS011;520;50.932;6.962;2023-05-14T08:03:54;6.80;;;6.20;;
1062;SDS011;520;50.932;6.962;2023-05-14T08:07:15;5.77;;;5.23;;
1062;SDS011;520;50.932;6.962;2023-05-14T08:13:50;4.40;;;4.10;;
1062;SDS011;520;50.932;6.962;2023-05-14T08:17:14;4.50;;;4.10;;
1062;SDS011;520;50.932;6.962;2023-05-14T08:23:14;4.30;;;4.00;;
1062;SDS011;520;50.932;6.962;2023-05-14T08:26:20;5.07;;;4.67;;
1062;SDS011;520;50.932;6.962;2023-05-14T08:36:29;4.17;;;3.67;;
1062;SDS011;520;50.932;6.962;2023-05-14T08:43:03;3.67;;;3.43;;
1062;SDS011;520;50.932;6.962;2023-05-14T09:06:42;3.10;;;2.90;;
1062;SDS011;520;50.932;6.962;2023-05-14T09:10:06;3.20;;;3.00;;
1062;SDS011;520;50.932;6.962;2023-05-14T09:16:43;3.77;;;2.97;;
1062;SDS011;520;50.932;6.962;2023-05-14T09:26:48;3.30;;;3.10;;
1062;SDS011;520;50.932;6.962;2023-05-14T09:30:10;2.87;;;2.60;;
1062;SDS011;520;50.932;6.962;2023-05-14T09:33:29;3.07;;;2.87;;
1062;SDS011;520;50.932;6.962;2023-05-14T09:36:50;3.17;;;2.87;;
1062;SDS011;520;50.932;6.962;2023-05-14T09:40:04;3.17;;;2.87;;
1062;SDS011;520;50.932;6.962;2023-05-14T09:50:43;2.73;;;2.53;;
1062;SDS011;520;50.932;6.962;2023-05-14T09:53:51;2.73;;;2.57;;
1062;SDS011;520;50.932;6.962;2023-05-14T09:57:12;3.20;;;3.00;;
1062;SDS011;520;50.932;6.962;2023-05-14T10:03:39;3.70;;;3.40;;
1062;SDS011;520;50.932;6.962;2023-05-14T10:10:09;3.30;;;3.10;;
1062;SDS011;520;50.932;6.962;2023-05-14T10:16:34;3.33;;;3.13;;
1062;SDS011;520;50.932;6.962;2023-05-14T10:19:26;3.03;;;2.83;;
1062;SDS011;520;50.932;6.962;2023-05-14T10:22:23;3.27;;;3.07;;
1062;SDS011;520;50.932;6.962;2023-05-14T10:25:46;3.60;;;3.30;;
1062;SDS011;520;50.932;6.962;2023-05-14T10:28:54;4.13;;;3.83;;
1062;SDS011;520;50.932;6.962;2023-05-14T10:32:12;3.63;;;3.43;;
1062;SDS011;520;50.932;6.962;2023-05-14T10:35:00;3.80;;;3.50;;
1062;SDS011;520;50.932;6.962;2023-05-14T10:41:33;5.20;;;4.33;;
1062;SDS011;520;50.932;6.962;2023-05-14T10:44:20;5.50;;;5.00;;
1062;SDS011;520;50.932;6.962;2023-05-14T10:47:38;6.63;;;5.30;;
1062;SDS011;520;50.932;6.962;2023-05-14T10:50:15;5.10;;;4.67;;
1062;SDS011;520;50.932;6.962;2023-05-14T10:53:29;4.80;;;4.40;;
1062;SDS011;520;50.932;6.962;2023-05-14T10:56:08;4.77;;;4.37;;
1062;SDS011;520;50.932;6.962;2023-05-14T10:58:56;4.60;;;4.30;;
1062;SDS011;520;50.932;6.962;2023-05-14T11:01:30;4.50;;;4.20;;
1062;SDS011;520;50.932;6.962;2023-05-14T11:04:01;5.30;;;4.90;;
1062;SDS011;520;50.932;6.962;2023-05-14T11:06:31;4.90;;;4.50;;
1062;SDS011;520;50.932;6.962;2023-05-14T11:09:11;5.17;;;4.70;;
1062;SDS011;520;50.932;6.962;2023-05-14T11:11:47;4.83;;;4.40;;
1062;SDS011;520;50.932;6.962;2023-05-14T11:14:21;5.40;;;5.00;;
1062;SDS011;520;50.932;6.962;2023-05-14T11:16:51;5.40;;;4.90;;
1062;SDS011;520;50.932;6.962;2023-05-14T11:19:35;5.73;;;5.20;;
1062;SDS011;520;50.932;6.962;2023-05-14T11:22:10;6.50;;;6.00;;
1062;SDS011;520;50.932;6.962;2023-05-14T11:24:48;5.67;;;5.27;;
1062;SDS011;520;50.932;6.962;2023-05-14T11:27:44;6.90;;;6.30;;
1062;SDS011;520;50.932;6.962;2023-05-14T11:30:20;5.13;;;4.73;;
1062;SDS011;520;50.932;6.962;2023-05-14T11:33:11;5.80;;;5.40;;
1062;SDS011;520;50.932;6.962;2023-05-14T11:35:39;5.80;;;5.30;;
1062;SDS011;520;50.932;6.962;2023-05-14T11:38:13;6.50;;;5.90;;
1062;SDS011;520;50.932;6.962;2023-05-14T11:40:56;6.40;;;5.80;;
1062;SDS011;520;50.932;6.962;2023-05-14T11:44:02;5.77;;;5.20;;
1062;SDS011;520;50.932;6.962;2023-05-14T11:46:31;5.93;;;5.10;;
1062;SDS011;520;50.932;6.962;2023-05-14T11:49:40;6.10;;;5.57;;
1062;SDS011;520;50.932;6.962;2023-05-14T11:52:21;5.07;;;4.67;;
1062;SDS011;520;50.932;6.962;2023-05-14T11:55:01;5.43;;;5.03;;
1062;SDS011;520;50.932;6.962;2023-05-14T11:57:55;5.77;;;5.27;;
1062;SDS011;520;50.932;6.962;2023-05-14T12:00:37;6.10;;;5.50;;
1062;SDS011;520;50.932;6.962;2023-05-14T12:03:38;6.73;;;5.47;;
1062;SDS011;520;50.932;6.962;2023-05-14T12:06:35;7.33;;;6.20;;
1062;SDS011;520;50.932;6.962;2023-05-14T12:09:26;6.20;;;5.60;;
1062;SDS011;520;50.932;6.962;2023-05-14T12:12:19;6.33;;;5.73;;
1062;SDS011;520;50.932;6.962;2023-05-14T12:15:15;5.13;;;4.73;;
1062;SDS011;520;50.932;6.962;2023-05-14T12:17:58;5.00;;;4.43;;
1062;SDS011;520;50.932;6.962;2023-05-14T12:20:50;3.90;;;3.60;;
1062;SDS011;520;50.932;6.962;2023-05-14T12:23:34;4.10;;;3.80;;
1062;SDS011;520;50.932;6.962;2023-05-14T12:29:37;5.07;;;4.57;;
1062;SDS011;520;50.932;6.962;2023-05-14T12:32:27;5.50;;;5.00;;
1062;SDS011;520;50.932;6.962;2023-05-14T12:38:24;6.53;;;5.93;;
1062;SDS011;520;50.932;6.962;2023-05-14T12:41:28;6.00;;;5.50;;
1062;SDS011;520;50.932;6.962;2023-05-14T12:44:39;5.50;;;5.00;;
1062;SDS011;520;50.932;6.962;2023-05-14T12:50:55;3.17;;;2.97;;
1062;SDS011;520;50.932;6.962;2023-05-14T12:53:47;3.87;;;3.57;;
1062;SDS011;520;50.932;6.962;2023-05-14T12:57:14;3.40;;;3.10;;
1062;SDS011;520;50.932;6.962;2023-05-14T13:00:37;3.63;;;2.83;;
1062;SDS011;520;50.932;6.962;2023-05-14T13:03:26;3.77;;;2.87;;
1062;SDS011;520;50.932;6.962;2023-05-14T13:06:55;3.27;;;2.97;;
1062;SDS011;520;50.932;6.962;2023-05-14T13:20:29;3.70;;;3.40;;
1062;SDS011;520;50.932;6.962;2023-05-14T13:23:28;2.70;;;2.50;;
1062;SDS011;520;50.932;6.962;2023-05-14T13:27:01;2.80;;;2.60;;
1062;SDS011;520;50.932;6.962;2023-05-14T13:30:37;3.23;;;2.90;;
1062;SDS011;520;50.932;6.962;2023-05-14T13:33:40;2.63;;;2.43;;
1062;SDS011;520;50.932;6.962;2023-05-14T13:55:24;3.07;;;2.80;;
1062;SDS011;520;50.932;6.962;2023-05-14T13:58:20;2.67;;;2.47;;
1062;SDS011;520;50.932;6.962;2023-05-14T14:01:12;3.70;;;3.07;;
1062;SDS011;520;50.932;6.962;2023-05-14T14:04:30;2.73;;;2.53;;
1062;SDS011;520;50.932;6.962;2023-05-14T14:08:15;5.00;;;4.60;;
1062;SDS011;520;50.932;6.962;2023-05-14T14:11:31;4.80;;;4.40;;
1062;SDS011;520;50.932;6.962;2023-05-14T14:18:03;6.77;;;5.90;;
1062;SDS011;520;50.932;6.962;2023-05-14T14:21:43;3.73;;;3.43;;
1062;SDS011;520;50.932;6.962;2023-05-14T14:24:43;3.47;;;3.17;;
1062;SDS011;520;50.932;6.962;2023-05-14T14:27:42;8.40;;;7.50;;
1062;SDS011;520;50.932;6.962;2023-05-14T14:30:43;14.80;;;13.03;;
1062;SDS011;520;50.932;6.962;2023-05-14T14:33:46;5.30;;;4.80;;
1062;SDS011;520;50.932;6.962;2023-05-14T14:44:36;6.70;;;6.00;;
1062;SDS011;520;50.932;6.962;2023-05-14T14:51:57;4.83;;;4.43;;
1062;SDS011;520;50.932;6.962;2023-05-14T14:55:11;3.90;;;3.60;;
1062;SDS011;520;50.932;6.962;2023-05-14T15:02:24;2.57;;;2.37;;
1062;SDS011;520;50.932;6.962;2023-05-14T15:05:38;3.17;;;2.87;;
1062;SDS011;520;50.932;6.962;2023-05-14T15:09:07;3.60;;;2.83;;
1062;SDS011;520;50.932;6.962;2023-05-14T15:12:21;3.80;;;3.50;;
1062;SDS011;520;50.932;6.962;2023-05-14T15:33:34;3.07;;;2.53;;
1062;SDS011;520;50.932;6.962;2023-05-14T15:36:32;2.77;;;2.57;;
1062;SDS011;520;50.932;6.962;2023-05-14T15:39:07;2.83;;;2.63;;
1062;SDS011;520;50.932;6.962;2023-05-14T15:42:06;3.20;;;2.90;;
1062;SDS011;520;50.932;6.962;2023-05-14T15:48:36;2.50;;;2.37;;
1062;SDS011;520;50.932;6.962;2023-05-14T15:51:23;2.77;;;2.57;;
1062;SDS011;520;50.932;6.962;2023-05-14T15:57:29;3.23;;;3.00;;
1062;SDS011;520;50.932;6.962;2023-05-14T16:00:27;4.10;;;2.37;;
1062;SDS011;520;50.932;6.962;2023-05-14T16:03:25;4.17;;;2.50;;
1062;SDS011;520;50.932;6.962;2023-05-14T16:06:15;2.90;;;2.60;;
1062;SDS011;520;50.932;6.962;2023-05-14T16:12:33;2.33;;;2.13;;
1062;SDS011;520;50.932;6.962;2023-05-14T16:18:55;2.97;;;2.73;;
1062;SDS011;520;50.932;6.962;2023-05-14T16:21:58;2.80;;;2.60;;
1062;SDS011;520;50.932;6.962;2023-05-14T16:28:11;2.93;;;2.73;;
1062;SDS011;520;50.932;6.962;2023-05-14T16:31:32;3.33;;;2.70;;
1062;SDS011;520;50.932;6.962;2023-05-14T16:55:38;1.70;;;1.60;;
1062;SDS011;520;50.932;6.962;2023-05-14T16:58:54;2.03;;;1.93;;
1062;SDS011;520;50.932;6.962;2023-05-14T17:01:58;1.80;;;1.70;;
1062;SDS011;520;50.932;6.962;2023-05-14T17:05:05;1.73;;;1.63;;
1062;SDS011;520;50.932;6.962;2023-05-14T17:08:06;2.50;;;1.73;;
1062;SDS011;520;50.932;6.962;2023-05-14T17:14:14;1.77;;;1.67;;
1062;SDS011;520;50.932;6.962;2023-05-14T17:17:41;1.90;;;1.73;;
1062;SDS011;520;50.932;6.962;2023-05-14T17:21:15;1.80;;;1.70;;
1062;SDS011;520;50.932;6.962;2023-05-14T17:25:09;1.87;;;1.70;;
1062;SDS011;520;50.932;6.962;2023-05-14T17:28:21;2.47;;;2.27;;
1062;SDS011;520;50.932;6.962;2023-05-14T17:34:47;2.20;;;2.10;;
1062;SDS011;520;50.932;6.962;2023-05-14T17:37:42;2.23;;;2.07;;
1062;SDS011;520;50.932;6.962;2023-05-14T17:41:37;2.13;;;1.90;;
1062;SDS011;520;50.932;6.962;2023-05-14T17:44:47;2.20;;;2.00;;
1062;SDS011;520;50.932;6.962;2023-05-14T17:48:02;1.97;;;1.87;;
1062;SDS011;520;50.932;6.962;2023-05-14T17:55:03;1.67;;;1.57;;
1062;SDS011;520;50.932;6.962;2023-05-14T18:01:37;2.03;;;1.93;;
1062;SDS011;520;50.932;6.962;2023-05-14T18:04:58;3.03;;;2.10;;
1062;SDS011;520;50.932;6.962;2023-05-14T18:12:06;3.97;;;3.50;;
1062;SDS011;520;50.932;6.962;2023-05-14T18:15:36;3.60;;;2.97;;
1062;SDS011;520;50.932;6.962;2023-05-14T18:18:55;2.23;;;2.03;;
1062;SDS011;520;50.932;6.962;2023-05-14T18:32:23;2.00;;;1.90;;
1062;SDS011;520;50.932;6.962;2023-05-14T18:35:37;1.90;;;1.80;;
1062;SDS011;520;50.932;6.962;2023-05-14T18:42:27;1.90;;;1.80;;
1062;SDS011;520;50.932;6.962;2023-05-14T18:56:20;2.03;;;1.83;;
1062;SDS011;520;50.932;6.962;2023-05-14T19:03:05;3.10;;;2.50;;
1062;SDS011;520;50.932;6.962;2023-05-14T19:06:27;2.43;;;2.23;;
1062;SDS011;520;50.932;6.962;2023-05-14T19:28:35;4.40;;;2.37;;
1062;SDS011;520;50.932;6.962;2023-05-14T19:32:19;2.40;;;2.13;;
1062;SDS011;520;50.932;6.962;2023-05-14T19:42:15;2.27;;;2.00;;
1062;SDS011;520;50.932;6.962;2023-05-14T19:48:32;2.27;;;2.07;;
1062;SDS011;520;50.932;6.962;2023-05-14T19:51:34;3.90;;;2.43;;
1062;SDS011;520;50.932;6.962;2023-05-14T19:54:51;2.90;;;2.70;;
1062;SDS011;520;50.932;6.962;2023-05-14T20:05:17;2.50;;;2.30;;
1062;SDS011;520;50.932;6.962;2023-05-14T20:11:33;2.10;;;1.70;;
1062;SDS011;520;50.932;6.962;2023-05-14T20:19:46;1.80;;;1.70;;
1062;SDS011;520;50.932;6.962;2023-05-14T20:23:38;1.80;;;1.70;;
1062;SDS011;520;50.932;6.962;2023-05-14T21:01:28;4.20;;;1.90;;
1062;SDS011;520;50.932;6.962;2023-05-14T21:07:51;2.00;;;1.70;;
1062;SDS011;520;50.932;6.962;2023-05-14T21:10:50;1.87;;;1.73;;
1062;SDS011;520;50.932;6.962;2023-05-14T21:13:47;1.73;;;1.63;;
1062;SDS011;520;50.932;6.962;2023-05-14T21:21:01;7.90;;;3.13;;
1062;SDS011;520;50.932;6.962;2023-05-14T21:24:33;2.67;;;2.40;;
1062;SDS011;520;50.932;6.962;2023-05-14T21:40:53;2.00;;;1.90;;
1062;SDS011;520;50.932;6.962;2023-05-14T21:43:34;2.23;;;2.03;;
1062;SDS011;520;50.932;6.962;2023-05-14T21:46:43;1.87;;;1.77;;
1062;SDS011;520;50.932;6.962;2023-05-14T21:49:37;1.97;;;1.80;;
1062;SDS011;520;50.932;6.962;2023-05-14T21:52:14;2.10;;;1.97;;
1062;SDS011;520;50.932;6.962;2023-05-14T21:55:01;3.13;;;2.03;;
1062;SDS011;520;50.932;6.962;2023-05-14T21:58:07;1.57;;;1.47;;
1062;SDS011;520;50.932;6.962;2023-05-14T22:01:00;1.80;;;1.70;;
1062;SDS011;520;50.932;6.962;2023-05-14T22:04:29;3.10;;;2.10;;
1062;SDS011;520;50.932;6.962;2023-05-14T22:07:49;2.20;;;2.00;;
1062;SDS011;520;50.932;6.962;2023-05-14T22:13:44;2.40;;;2.20;;
1062;SDS011;520;50.932;6.962;2023-05-14T22:16:49;1.77;;;1.67;;
1062;SDS011;520;50.932;6.962;2023-05-14T22:20:04;1.87;;;1.77;;
1062;SDS011;520;50.932;6.962;2023-05-14T22:22:59;3.60;;;2.07;;
1062;SDS011;520;50.932;6.962;2023-05-14T22:26:03;2.40;;;2.20;;
1062;SDS011;520;50.932;6.962;2023-05-14T22:32:20;3.20;;;2.57;;
1062;SDS011;520;50.932;6.962;2023-05-14T22:35:22;3.10;;;2.63;;
1062;SDS011;520;50.932;6.962;2023-05-14T22:38:32;2.50;;;2.30;;
1062;SDS011;520;50.932;6.962;2023-05-14T22:42:13;2.47;;;2.27;;
1062;SDS011;520;50.932;6.962;2023-05-14T22:45:27;3.03;;;2.80;;
1062;SDS011;520;50.932;6.962;2023-05-14T22:48:41;4.53;;;2.30;;
1062;SDS011;520;50.932;6.962;2023-05-14T22:51:38;2.50;;;2.20;;
1062;SDS011;520;50.932;6.962;2023-05-14T22:54:55;2.07;;;1.97;;
1062;SDS011;520;50.932;6.962;2023-05-14T23:01:24;2.30;;;2.10;;
1062;SDS011;520;50.932;6.962;2023-05-14T23:04:51;2.83;;;2.37;;
1062;SDS011;520;50.932;6.962;2023-05-14T23:07:58;2.63;;;2.43;;
1062;SDS011;520;50.932;6.962;2023-05-14T23:10:44;3.03;;;2.73;;
1062;SDS011;520;50.932;6.962;2023-05-14T23:13:58;2.73;;;2.53;;
1062;SDS011;520;50.932;6.962;2023-05-14T23:16:48;2.57;;;2.10;;
1062;SDS011;520;50.932;6.962;2023-05-14T23:19:53;3.33;;;3.03;;
1062;SDS011;520;50.932;6.962;2023-05-14T23:25:54;3.27;;;2.97;;
1062;SDS011;520;50.932;6.962;2023-05-14T23:28:53;3.43;;;3.13;;
1062;SDS011;520;50.932;6.962;2023-05-14T23:31:56;3.80;;;3.50;;
1062;SDS011;520;50.932;6.962;2023-05-14T23:34:40;4.77;;;4.27;;
1062;SDS011;520;50.932;6.962;2023-05-14T23:40:57;4.33;;;4.03;;
1062;SDS011;520;50.932;6.962;2023-05-14T23:44:50;4.33;;;4.00;;
1062;SDS011;520;50.932;6.962;2023-05-14T23:47:33;6.33;;;5.20;;
1062;SDS011;520;50.932;6.962;2023-05-14T23:54:10;6.20;;;5.70;;
